createdAt,value
2022-11-21T00:00:59.869Z,21.19
2022-11-21T00:02:58.693Z,21.19
2022-11-21T00:04:56.701Z,21.13
2022-11-21T00:06:54.756Z,21.13
2022-11-21T00:08:53.172Z,21.06
2022-11-21T00:10:51.597Z,21.06
2022-11-21T00:12:49.879Z,21.00
2022-11-21T00:14:47.913Z,21.00
2022-11-21T00:16:46.145Z,20.94
2022-11-21T00:18:44.821Z,20.94
2022-11-21T00:20:43.112Z,20.94
2022-11-21T00:22:41.209Z,20.88
2022-11-21T00:24:39.430Z,20.88
2022-11-21T00:26:37.881Z,20.81
2022-11-21T00:28:36.084Z,20.81
2022-11-21T00:30:34.155Z,20.81
2022-11-21T00:32:32.245Z,20.81
2022-11-21T00:34:30.592Z,20.75
2022-11-21T00:36:29.004Z,20.75
2022-11-21T00:38:27.050Z,20.75
2022-11-21T00:40:25.043Z,20.69
2022-11-21T00:42:23.269Z,20.69
2022-11-21T00:44:21.300Z,20.69
2022-11-21T00:46:19.599Z,20.69
2022-11-21T00:48:17.803Z,20.63
2022-11-21T00:50:16.235Z,20.63
2022-11-21T00:52:14.526Z,20.63
2022-11-21T00:54:12.574Z,20.56
2022-11-21T00:56:10.720Z,20.56
2022-11-21T00:58:08.963Z,20.56
2022-11-21T01:00:07.096Z,20.56
2022-11-21T01:02:06.069Z,20.50
2022-11-21T01:04:04.102Z,20.50
2022-11-21T01:06:02.153Z,20.50
2022-11-21T01:08:00.259Z,20.50
2022-11-21T01:09:58.519Z,20.44
2022-11-21T01:11:56.570Z,20.44
2022-11-21T01:13:54.853Z,20.44
2022-11-21T01:15:52.876Z,20.44
2022-11-21T01:17:51.164Z,20.38
2022-11-21T01:19:49.218Z,20.38
2022-11-21T01:21:47.887Z,20.38
2022-11-21T01:23:46.190Z,20.38
2022-11-21T01:25:44.200Z,20.38
2022-11-21T01:27:42.349Z,20.38
2022-11-21T01:29:40.576Z,20.31
2022-11-21T01:31:38.627Z,20.31
2022-11-21T01:33:36.870Z,20.31
2022-11-21T01:35:35.150Z,20.31
2022-11-21T01:37:33.205Z,20.31
2022-11-21T01:39:31.503Z,20.25
2022-11-21T01:41:31.377Z,20.25
2022-11-21T01:43:29.615Z,20.25
2022-11-21T01:45:27.625Z,20.25
2022-11-21T01:47:25.846Z,20.25
2022-11-21T01:49:23.947Z,20.25
2022-11-21T01:51:22.027Z,20.19
2022-11-21T01:53:20.287Z,20.19
2022-11-21T01:55:18.370Z,20.19
2022-11-21T01:57:16.628Z,20.19
2022-11-21T01:59:14.655Z,20.19
2022-11-21T02:01:12.986Z,20.13
2022-11-21T02:03:11.320Z,20.13
2022-11-21T02:05:09.371Z,20.13
2022-11-21T02:07:07.584Z,20.13
2022-11-21T02:09:05.873Z,20.06
2022-11-21T02:11:04.179Z,20.06
2022-11-21T02:13:02.267Z,20.06
2022-11-21T02:15:00.598Z,20.06
2022-11-21T02:16:59.085Z,20.06
2022-11-21T02:18:57.256Z,20.00
2022-11-21T02:20:55.540Z,20.00
2022-11-21T02:22:53.754Z,20.00
2022-11-21T02:24:52.058Z,20.00
2022-11-21T02:26:50.119Z,20.00
2022-11-21T02:28:48.198Z,20.00
2022-11-21T02:30:46.242Z,20.00
2022-11-21T02:32:46.923Z,19.94
2022-11-21T02:34:45.309Z,19.94
2022-11-21T02:36:43.433Z,19.94
2022-11-21T02:38:41.657Z,19.94
2022-11-21T02:40:39.892Z,19.94
2022-11-21T02:42:38.151Z,19.88
2022-11-21T02:44:36.166Z,19.88
2022-11-21T02:46:34.438Z,19.88
2022-11-21T02:48:32.693Z,19.88
2022-11-21T02:50:31.148Z,21.25
2022-11-21T02:52:29.474Z,21.31
2022-11-21T02:54:27.972Z,21.50
2022-11-21T02:56:26.558Z,21.75
2022-11-21T02:58:25.000Z,21.88
2022-11-21T03:00:24.525Z,22.06
2022-11-21T03:02:22.579Z,22.19
2022-11-21T03:04:20.613Z,22.31
2022-11-21T03:06:18.715Z,22.44
2022-11-21T03:08:17.153Z,22.50
2022-11-21T03:10:15.218Z,22.56
2022-11-21T03:12:13.289Z,22.69
2022-11-21T03:14:11.768Z,22.19
2022-11-21T03:16:09.786Z,21.69
2022-11-21T03:18:08.232Z,21.56
2022-11-21T03:20:06.324Z,21.50
2022-11-21T03:22:04.381Z,21.44
2022-11-21T03:24:02.483Z,21.31
2022-11-21T03:26:00.707Z,21.25
2022-11-21T03:27:58.911Z,21.19
2022-11-21T03:29:57.233Z,21.13
2022-11-21T03:31:55.601Z,21.06
2022-11-21T03:33:53.684Z,21.00
2022-11-21T03:35:51.806Z,20.94
2022-11-21T03:37:50.083Z,20.88
2022-11-21T03:39:48.285Z,20.81
2022-11-21T03:41:46.325Z,20.75
2022-11-21T03:43:44.513Z,20.69
2022-11-21T03:45:42.716Z,20.63
2022-11-21T03:47:41.126Z,20.63
2022-11-21T03:49:39.148Z,20.56
2022-11-21T03:51:37.355Z,20.50
2022-11-21T03:53:35.396Z,20.44
2022-11-21T03:55:33.604Z,20.44
2022-11-21T03:57:31.640Z,20.38
2022-11-21T03:59:29.954Z,20.38
2022-11-21T04:01:32.393Z,20.31
2022-11-21T04:03:33.606Z,20.31
2022-11-21T04:05:31.993Z,20.25
2022-11-21T04:07:30.777Z,20.25
2022-11-21T04:09:28.803Z,20.19
2022-11-21T04:11:27.011Z,20.19
2022-11-21T04:13:25.302Z,20.13
2022-11-21T04:15:23.571Z,20.13
2022-11-21T04:17:21.587Z,20.06
2022-11-21T04:19:19.658Z,20.06
2022-11-21T04:21:17.741Z,20.06
2022-11-21T04:23:16.041Z,20.00
2022-11-21T04:25:14.696Z,20.00
2022-11-21T04:27:12.693Z,20.00
2022-11-21T04:29:11.129Z,19.94
2022-11-21T04:31:11.137Z,19.94
2022-11-21T04:33:09.751Z,19.94
2022-11-21T04:35:08.074Z,19.88
2022-11-21T04:37:10.282Z,19.88
2022-11-21T04:39:09.697Z,19.88
2022-11-21T04:41:07.711Z,21.19
2022-11-21T04:43:06.095Z,21.25
2022-11-21T04:45:04.232Z,21.44
2022-11-21T04:47:05.359Z,22.00
2022-11-21T04:49:04.219Z,22.75
2022-11-21T04:51:02.204Z,23.13
2022-11-21T04:53:00.447Z,23.31
2022-11-21T04:54:58.537Z,23.13
2022-11-21T04:56:56.597Z,22.00
2022-11-21T04:58:54.630Z,21.75
2022-11-21T05:00:53.002Z,21.63
2022-11-21T05:02:51.079Z,21.56
2022-11-21T05:04:49.151Z,21.44
2022-11-21T05:06:47.178Z,21.38
2022-11-21T05:08:49.046Z,21.25
2022-11-21T05:11:08.009Z,21.19
2022-11-21T05:13:24.617Z,21.06
2022-11-21T05:15:24.928Z,21.00
2022-11-21T05:17:23.899Z,20.94
2022-11-21T05:19:22.249Z,20.88
2022-11-21T05:21:20.336Z,20.81
2022-11-21T05:23:18.360Z,20.75
2022-11-21T05:25:16.428Z,20.69
2022-11-21T05:27:14.448Z,20.63
2022-11-21T05:29:12.967Z,20.56
2022-11-21T05:31:11.096Z,20.50
2022-11-21T05:33:09.121Z,20.50
2022-11-21T05:35:07.575Z,20.44
2022-11-21T05:37:05.683Z,20.38
2022-11-21T05:39:04.403Z,20.31
2022-11-21T05:41:02.861Z,20.31
2022-11-21T05:43:18.554Z,20.25
2022-11-21T05:45:16.826Z,20.25
2022-11-21T05:47:14.887Z,20.19
2022-11-21T05:49:13.308Z,20.19
2022-11-21T05:51:11.396Z,20.13
2022-11-21T05:53:10.105Z,20.06
2022-11-21T05:55:08.164Z,20.06
2022-11-21T05:57:06.190Z,20.06
2022-11-21T05:59:04.387Z,20.00
2022-11-21T06:01:02.539Z,20.00
2022-11-21T06:03:18.537Z,19.94
2022-11-21T06:05:16.596Z,19.94
2022-11-21T06:07:14.855Z,19.88
2022-11-21T06:09:13.242Z,19.88
2022-11-21T06:11:11.287Z,19.88
2022-11-21T06:13:22.453Z,19.81
2022-11-21T06:15:20.606Z,19.81
2022-11-21T06:17:18.721Z,20.31
2022-11-21T06:19:16.806Z,21.06
2022-11-21T06:21:14.882Z,21.25
2022-11-21T06:23:13.455Z,21.44
2022-11-21T06:25:11.471Z,21.63
2022-11-21T06:27:09.720Z,21.81
2022-11-21T06:29:07.720Z,21.94
2022-11-21T06:31:05.994Z,22.06
2022-11-21T06:33:04.116Z,22.19
2022-11-21T06:35:02.175Z,22.25
2022-11-21T06:37:00.166Z,22.31
2022-11-21T06:38:58.417Z,22.38
2022-11-21T06:40:57.121Z,22.50
2022-11-21T06:42:55.266Z,22.56
2022-11-21T06:44:53.359Z,22.63
2022-11-21T06:46:51.856Z,21.69
2022-11-21T06:48:50.020Z,21.56
2022-11-21T06:50:48.138Z,21.44
2022-11-21T06:52:46.197Z,21.38
2022-11-21T06:54:44.207Z,21.25
2022-11-21T06:56:44.863Z,21.19
2022-11-21T06:58:43.126Z,21.06
2022-11-21T07:00:41.147Z,22.06
2022-11-21T07:02:39.244Z,22.31
2022-11-21T07:04:37.441Z,22.63
2022-11-21T07:06:35.756Z,23.13
2022-11-21T07:08:34.350Z,23.50
2022-11-21T07:10:32.563Z,23.88
2022-11-21T07:12:48.278Z,24.25
2022-11-21T07:14:46.529Z,24.69
2022-11-21T07:16:44.566Z,24.94
2022-11-21T07:18:42.621Z,25.31
2022-11-21T07:20:40.666Z,25.56
2022-11-21T07:22:38.692Z,25.94
2022-11-21T07:24:37.020Z,26.25
2022-11-21T07:26:35.091Z,26.56
2022-11-21T07:28:33.527Z,26.88
2022-11-21T07:30:31.628Z,27.13
2022-11-21T07:32:29.699Z,27.38
2022-11-21T07:34:28.657Z,27.63
2022-11-21T07:36:26.686Z,27.81
2022-11-21T07:38:25.186Z,28.00
2022-11-21T07:40:23.650Z,28.19
2022-11-21T07:42:21.649Z,28.38
2022-11-21T07:44:20.338Z,28.50
2022-11-21T07:46:18.755Z,28.56
2022-11-21T07:48:17.010Z,28.69
2022-11-21T07:50:15.320Z,28.75
2022-11-21T07:52:13.366Z,28.81
2022-11-21T07:54:11.577Z,28.88
2022-11-21T07:56:10.603Z,28.88
2022-11-21T07:58:08.743Z,28.88
2022-11-21T08:00:07.008Z,28.88
2022-11-21T08:02:05.430Z,28.88
2022-11-21T08:04:03.508Z,28.88
2022-11-21T08:06:01.582Z,28.88
2022-11-21T08:07:59.637Z,28.81
2022-11-21T08:09:57.927Z,28.75
2022-11-21T08:11:55.974Z,28.75
2022-11-21T08:13:54.353Z,28.69
2022-11-21T08:15:52.777Z,28.63
2022-11-21T08:17:50.899Z,28.56
2022-11-21T08:19:49.182Z,28.56
2022-11-21T08:21:47.567Z,28.50
2022-11-21T08:23:45.592Z,28.44
2022-11-21T08:25:43.617Z,28.38
2022-11-21T08:27:42.658Z,28.31
2022-11-21T08:29:41.043Z,28.25
2022-11-21T08:31:39.494Z,28.25
2022-11-21T08:33:37.813Z,28.19
2022-11-21T08:35:35.847Z,28.13
2022-11-21T08:37:33.913Z,28.06
2022-11-21T08:39:32.180Z,28.00
2022-11-21T08:41:47.786Z,27.94
2022-11-21T08:43:46.072Z,27.94
2022-11-21T08:45:44.360Z,27.88
2022-11-21T08:47:42.454Z,27.88
2022-11-21T08:49:40.491Z,27.88
2022-11-21T08:51:38.544Z,27.88
2022-11-21T08:53:36.643Z,27.81
2022-11-21T08:55:34.937Z,27.81
2022-11-21T08:57:33.008Z,27.81
2022-11-21T08:59:31.280Z,27.81
2022-11-21T09:01:29.710Z,27.81
2022-11-21T09:03:31.013Z,27.81
2022-11-21T09:05:29.505Z,27.81
2022-11-21T09:07:27.599Z,27.81
2022-11-21T09:09:25.974Z,27.81
2022-11-21T09:11:25.044Z,27.81
2022-11-21T09:13:23.557Z,27.81
2022-11-21T09:15:39.455Z,27.88
2022-11-21T09:17:55.377Z,27.88
2022-11-21T09:19:53.516Z,27.88
2022-11-21T09:21:51.682Z,27.88
2022-11-21T09:23:50.125Z,27.88
2022-11-21T09:25:48.532Z,27.88
2022-11-21T09:27:47.109Z,27.88
2022-11-21T09:29:49.631Z,27.88
2022-11-21T09:31:52.063Z,27.88
2022-11-21T09:33:54.799Z,27.94
2022-11-21T09:35:53.416Z,27.94
2022-11-21T09:37:52.411Z,27.94
2022-11-21T09:39:50.451Z,27.94
2022-11-21T09:41:54.630Z,27.94
2022-11-21T09:43:55.870Z,27.94
2022-11-21T09:45:54.041Z,28.69
2022-11-21T09:47:52.338Z,28.88
2022-11-21T09:49:50.426Z,29.00
2022-11-21T09:51:49.656Z,28.94
2022-11-21T09:53:49.532Z,28.31
2022-11-21T09:55:47.920Z,28.19
2022-11-21T09:57:47.077Z,28.06
2022-11-21T09:59:45.358Z,28.13
2022-11-21T10:01:43.627Z,28.00
2022-11-21T10:03:41.859Z,28.06
2022-11-21T10:05:39.941Z,28.00
2022-11-21T10:07:38.185Z,28.00
2022-11-21T10:09:36.667Z,27.94
2022-11-21T10:11:34.756Z,27.94
2022-11-21T10:13:33.147Z,27.94
2022-11-21T10:15:32.902Z,28.00
2022-11-21T10:17:30.923Z,27.94
2022-11-21T10:19:28.972Z,28.00
2022-11-21T10:21:27.274Z,27.94
2022-11-21T10:23:25.695Z,27.94
2022-11-21T10:25:26.915Z,28.00
2022-11-21T10:27:25.889Z,28.13
2022-11-21T10:29:24.162Z,28.06
2022-11-21T10:31:22.987Z,28.13
2022-11-21T10:33:21.066Z,28.13
2022-11-21T10:35:19.307Z,28.19
2022-11-21T10:37:17.362Z,28.13
2022-11-21T10:39:15.567Z,28.25
2022-11-21T10:41:13.622Z,28.25
2022-11-21T10:43:29.152Z,28.31
2022-11-21T10:45:27.222Z,28.25
2022-11-21T10:47:28.988Z,28.31
2022-11-21T10:49:27.462Z,28.31
2022-11-21T10:51:25.724Z,28.38
2022-11-21T10:53:41.201Z,28.31
2022-11-21T10:55:39.251Z,28.31
2022-11-21T10:57:37.286Z,28.38
2022-11-21T10:59:35.557Z,28.31
2022-11-21T11:01:33.657Z,28.31
2022-11-21T11:03:31.937Z,28.38
2022-11-21T11:05:29.969Z,28.31
2022-11-21T11:07:28.309Z,28.38
2022-11-21T11:09:26.865Z,28.31
2022-11-21T11:11:25.653Z,28.31
2022-11-21T11:13:51.944Z,28.31
2022-11-21T11:15:50.381Z,28.31
2022-11-21T11:17:48.470Z,28.31
2022-11-21T11:19:47.948Z,28.38
2022-11-21T11:21:46.219Z,28.31
2022-11-21T11:23:44.381Z,29.38
2022-11-21T11:25:42.387Z,29.63
2022-11-21T11:27:40.656Z,29.88
2022-11-21T11:29:39.001Z,29.75
2022-11-21T11:31:37.286Z,29.19
2022-11-21T11:33:35.487Z,28.88
2022-11-21T11:35:33.815Z,28.81
2022-11-21T11:37:35.736Z,28.69
2022-11-21T11:39:37.060Z,28.69
2022-11-21T11:41:56.076Z,28.69
2022-11-21T11:44:11.886Z,28.56
2022-11-21T11:46:27.727Z,28.50
2022-11-21T11:48:26.026Z,28.50
2022-11-21T11:50:24.516Z,28.50
2022-11-21T11:52:22.888Z,28.44
2022-11-21T11:54:21.200Z,28.38
2022-11-21T11:56:19.927Z,28.38
2022-11-21T11:58:18.651Z,28.38
2022-11-21T12:00:16.797Z,28.38
2022-11-21T12:02:15.169Z,28.31
2022-11-21T12:04:13.251Z,28.31
2022-11-21T12:06:11.302Z,28.31
2022-11-21T12:10:28.063Z,28.25
2022-11-21T12:12:25.164Z,28.25
2022-11-21T12:14:37.368Z,28.25
2022-11-21T12:16:35.382Z,28.25
2022-11-21T12:18:33.490Z,28.19
2022-11-21T12:20:31.654Z,28.19
2022-11-21T12:22:29.723Z,28.19
2022-11-21T12:24:27.780Z,28.19
2022-11-21T12:26:26.044Z,28.25
2022-11-21T12:28:24.127Z,28.19
2022-11-21T12:30:22.205Z,28.25
2022-11-21T12:32:20.471Z,28.19
2022-11-21T12:34:18.890Z,28.19
2022-11-21T12:36:18.715Z,28.25
2022-11-21T12:38:17.249Z,28.25
2022-11-21T12:40:15.669Z,28.25
2022-11-21T12:42:31.367Z,28.25
2022-11-21T12:44:29.436Z,28.25
2022-11-21T12:46:27.499Z,28.25
2022-11-21T12:48:43.328Z,28.25
2022-11-21T12:50:59.254Z,28.25
2022-11-21T12:53:15.121Z,28.25
2022-11-21T12:55:13.401Z,28.31
2022-11-21T12:57:11.883Z,28.25
2022-11-21T12:59:09.877Z,28.31
2022-11-21T13:01:10.199Z,29.31
2022-11-21T13:03:08.654Z,29.75
2022-11-21T13:05:06.828Z,29.94
2022-11-21T13:07:05.280Z,29.94
2022-11-21T13:09:03.348Z,29.44
2022-11-21T13:11:21.764Z,29.00
2022-11-21T13:13:20.268Z,28.88
2022-11-21T13:15:18.519Z,28.88
2022-11-21T13:17:16.707Z,28.88
2022-11-21T13:19:14.970Z,28.81
2022-11-21T13:21:13.525Z,28.75
2022-11-21T13:23:11.557Z,28.75
2022-11-21T13:25:09.960Z,28.69
2022-11-21T13:27:08.250Z,28.69
2022-11-21T13:29:06.426Z,28.69
2022-11-21T13:31:04.665Z,28.63
2022-11-21T13:33:02.911Z,28.63
2022-11-21T13:35:01.039Z,28.56
2022-11-21T13:36:59.323Z,28.56
2022-11-21T13:38:57.552Z,28.50
2022-11-21T13:41:13.194Z,28.50
2022-11-21T13:43:32.861Z,28.50
2022-11-21T13:45:29.548Z,28.44
2022-11-21T13:47:28.009Z,28.44
2022-11-21T13:49:26.543Z,28.44
2022-11-21T13:51:26.246Z,28.44
2022-11-21T13:53:27.365Z,28.38
2022-11-21T13:55:25.607Z,28.38
2022-11-21T13:57:24.032Z,28.38
2022-11-21T14:50:16.615Z,27.06
2022-11-21T14:52:14.737Z,27.50
2022-11-21T14:54:12.819Z,27.31
2022-11-21T14:56:10.912Z,27.06
2022-11-21T14:58:10.255Z,26.88
2022-11-21T15:00:08.362Z,26.63
2022-11-21T15:02:06.395Z,26.44
2022-11-21T15:04:04.461Z,26.25
2022-11-21T15:06:06.294Z,27.81
2022-11-21T15:08:38.830Z,27.50
2022-11-21T15:10:29.136Z,27.44
2022-11-21T15:12:27.996Z,27.50
2022-11-21T15:14:25.969Z,27.56
2022-11-21T15:16:24.018Z,27.63
2022-11-21T15:18:27.877Z,27.75
2022-11-21T15:20:40.086Z,27.81
2022-11-21T15:22:38.191Z,27.88
2022-11-21T15:24:40.185Z,27.94
2022-11-21T15:26:41.119Z,27.94
2022-11-21T15:28:39.170Z,27.88
2022-11-21T15:30:37.434Z,27.88
2022-11-21T15:32:35.519Z,27.94
2022-11-21T15:34:35.729Z,27.94
2022-11-21T15:36:51.750Z,27.94
2022-11-21T15:38:49.860Z,27.94
2022-11-21T15:40:47.901Z,27.94
2022-11-21T15:42:46.942Z,28.00
2022-11-21T15:44:45.213Z,28.06
2022-11-21T15:46:43.211Z,28.06
2022-11-21T15:48:41.236Z,28.06
2022-11-21T15:50:39.251Z,28.06
2022-11-21T15:52:37.469Z,28.13
2022-11-21T15:54:35.526Z,28.13
2022-11-21T15:56:33.602Z,28.19
2022-11-21T15:58:31.785Z,28.19
2022-11-21T16:00:29.872Z,28.13
2022-11-21T16:02:27.914Z,26.94
2022-11-21T16:04:26.517Z,26.44
2022-11-21T16:06:24.612Z,26.19
2022-11-21T16:08:22.665Z,26.00
2022-11-21T16:10:27.580Z,25.81
2022-11-21T16:12:25.942Z,25.56
2022-11-21T16:14:24.016Z,25.38
2022-11-21T16:16:22.123Z,25.19
2022-11-21T16:18:20.376Z,25.00
2022-11-21T16:20:21.189Z,24.88
2022-11-21T16:22:19.268Z,24.75
2022-11-21T16:24:17.316Z,24.56
2022-11-21T16:26:15.371Z,24.44
2022-11-21T16:28:13.521Z,24.25
2022-11-21T16:30:12.288Z,24.19
2022-11-21T16:32:10.331Z,24.06
2022-11-21T16:34:08.693Z,23.94
2022-11-21T16:36:06.744Z,23.81
2022-11-21T16:38:04.771Z,23.69
2022-11-21T16:40:02.895Z,23.63
2022-11-21T16:42:00.898Z,23.50
2022-11-21T16:43:58.953Z,23.38
2022-11-21T16:45:57.002Z,23.31
2022-11-21T16:47:55.170Z,23.25
2022-11-21T16:49:53.246Z,23.13
2022-11-21T16:51:51.351Z,23.06
2022-11-21T16:53:49.325Z,23.00
2022-11-21T16:55:47.543Z,22.94
2022-11-21T16:57:45.667Z,22.88
2022-11-21T16:59:43.722Z,22.75
2022-11-21T17:01:41.911Z,22.69
2022-11-21T17:03:40.050Z,22.63
2022-11-21T17:05:38.233Z,22.56
2022-11-21T17:07:36.419Z,22.50
2022-11-21T17:09:34.953Z,22.50
2022-11-21T17:11:32.978Z,22.44
2022-11-21T17:13:31.248Z,22.38
2022-11-21T17:15:29.265Z,22.31
2022-11-21T17:17:27.279Z,22.25
2022-11-21T17:19:27.759Z,22.19
2022-11-21T17:21:25.900Z,23.75
2022-11-21T17:23:24.157Z,23.56
2022-11-21T17:25:22.213Z,23.69
2022-11-21T17:27:20.242Z,23.94
2022-11-21T17:29:18.377Z,24.06
2022-11-21T17:31:16.374Z,24.19
2022-11-21T17:33:14.621Z,24.31
2022-11-21T17:35:12.660Z,24.44
2022-11-21T17:37:10.752Z,24.56
2022-11-21T17:39:08.980Z,24.63
2022-11-21T17:41:07.057Z,24.69
2022-11-21T17:43:05.099Z,24.75
2022-11-21T17:45:03.110Z,24.75
2022-11-21T17:47:02.175Z,24.81
2022-11-21T17:49:00.381Z,24.88
2022-11-21T17:50:59.012Z,24.94
2022-11-21T17:52:57.270Z,24.94
2022-11-21T17:54:55.577Z,24.38
2022-11-21T17:56:56.808Z,23.88
2022-11-21T17:58:55.213Z,23.75
2022-11-21T18:00:53.388Z,23.63
2022-11-21T18:02:51.686Z,23.50
2022-11-21T18:04:50.405Z,23.38
2022-11-21T18:06:48.444Z,23.31
2022-11-21T18:08:46.427Z,23.19
2022-11-21T18:10:44.463Z,23.06
2022-11-21T18:12:42.727Z,23.00
2022-11-21T18:14:40.994Z,22.88
2022-11-21T18:16:39.501Z,22.81
2022-11-21T18:18:37.662Z,22.75
2022-11-21T18:20:35.655Z,22.69
2022-11-21T18:22:33.654Z,22.56
2022-11-21T18:24:31.925Z,22.50
2022-11-21T18:26:30.291Z,22.44
2022-11-21T18:28:28.271Z,22.38
2022-11-21T18:30:26.297Z,22.31
2022-11-21T18:32:24.436Z,22.25
2022-11-21T18:34:22.450Z,22.19
2022-11-21T18:36:21.245Z,22.13
2022-11-21T18:38:46.065Z,22.06
2022-11-21T18:40:37.277Z,23.31
2022-11-21T18:42:35.377Z,23.63
2022-11-21T18:44:33.421Z,24.31
2022-11-21T18:46:31.474Z,24.69
2022-11-21T18:49:00.132Z,25.06
2022-11-21T18:50:47.605Z,24.75
2022-11-21T18:52:46.994Z,24.50
2022-11-21T18:54:45.217Z,24.50
2022-11-21T18:56:43.291Z,24.56
2022-11-21T18:58:41.344Z,24.63
2022-11-21T19:00:39.418Z,24.69
2022-11-21T19:02:37.690Z,24.75
2022-11-21T19:04:35.962Z,24.81
2022-11-21T19:06:34.132Z,24.88
2022-11-21T19:08:32.212Z,24.88
2022-11-21T19:10:43.112Z,24.88
2022-11-21T19:12:41.656Z,23.88
2022-11-21T19:14:39.880Z,23.69
2022-11-21T19:16:37.955Z,23.56
2022-11-21T19:18:39.473Z,23.44
2022-11-21T19:20:39.311Z,23.31
2022-11-21T19:22:37.401Z,23.19
2022-11-21T19:24:35.441Z,23.13
2022-11-21T19:26:33.513Z,23.00
2022-11-21T19:28:31.886Z,22.88
2022-11-21T19:30:30.136Z,22.81
2022-11-21T19:32:29.005Z,22.69
2022-11-21T19:34:27.030Z,22.63
2022-11-21T19:36:25.062Z,22.56
2022-11-21T19:38:23.151Z,22.44
2022-11-21T19:40:21.188Z,22.44
2022-11-21T19:42:19.318Z,22.31
2022-11-21T19:44:17.456Z,22.25
2022-11-21T19:46:15.647Z,22.19
2022-11-21T19:48:13.850Z,22.13
2022-11-21T19:50:11.934Z,22.06
2022-11-21T19:52:10.057Z,22.00
2022-11-21T19:54:08.234Z,23.44
2022-11-21T19:56:06.290Z,23.31
2022-11-21T19:58:04.534Z,23.44
2022-11-21T20:00:02.678Z,23.63
2022-11-21T20:02:01.620Z,23.75
2022-11-21T20:03:59.769Z,23.94
2022-11-21T20:05:57.810Z,24.06
2022-11-21T20:08:01.627Z,24.13
2022-11-21T20:10:01.946Z,24.25
2022-11-21T20:12:01.317Z,24.31
2022-11-21T20:13:59.392Z,24.44
2022-11-21T20:15:57.489Z,24.50
2022-11-21T20:17:55.474Z,24.56
2022-11-21T20:19:53.509Z,24.56
2022-11-21T20:21:51.875Z,24.63
2022-11-21T20:23:50.784Z,24.69
2022-11-21T20:25:49.494Z,24.69
2022-11-21T20:27:47.836Z,24.75
2022-11-21T20:29:45.878Z,24.75
2022-11-21T20:31:44.792Z,24.81
2022-11-21T20:33:43.008Z,24.88
2022-11-21T20:35:43.098Z,24.94
2022-11-21T20:37:41.126Z,24.94
2022-11-21T20:39:39.230Z,23.94
2022-11-21T20:41:37.512Z,23.75
2022-11-21T20:44:14.350Z,23.63
2022-11-21T20:46:14.098Z,23.44
2022-11-21T20:48:17.240Z,23.31
2022-11-21T20:50:50.133Z,23.19
2022-11-21T20:54:55.701Z,22.94
2022-11-21T20:56:53.820Z,22.81
2022-11-21T20:58:51.875Z,22.75
2022-11-21T21:00:49.886Z,22.69
2022-11-21T21:02:48.055Z,22.56
2022-11-21T21:04:46.083Z,22.50
2022-11-21T21:06:44.107Z,22.38
2022-11-21T21:08:42.322Z,22.31
2022-11-21T21:11:04.407Z,22.25
2022-11-21T21:12:58.577Z,22.19
2022-11-21T21:14:56.598Z,22.13
2022-11-21T21:16:54.711Z,23.63
2022-11-21T21:18:53.581Z,23.38
2022-11-21T21:21:15.532Z,23.50
2022-11-21T21:23:09.622Z,23.75
2022-11-21T21:25:07.657Z,23.81
2022-11-21T21:27:05.919Z,24.00
2022-11-21T21:29:03.950Z,24.19
2022-11-21T21:31:01.929Z,24.25
2022-11-21T21:33:00.202Z,24.31
2022-11-21T21:34:58.232Z,24.44
2022-11-21T21:36:56.301Z,24.44
2022-11-21T21:38:54.289Z,24.50
2022-11-21T21:40:52.294Z,24.56
2022-11-21T21:42:50.285Z,25.38
2022-11-21T21:44:48.302Z,25.88
2022-11-21T21:46:46.308Z,26.13
2022-11-21T21:48:44.374Z,26.38
2022-11-21T21:50:42.503Z,25.94
2022-11-21T21:52:40.703Z,24.63
2022-11-21T21:54:39.052Z,24.31
2022-11-21T21:56:37.082Z,24.19
2022-11-21T21:58:35.214Z,24.00
2022-11-21T22:00:33.252Z,23.88
2022-11-21T22:02:31.247Z,23.75
2022-11-21T22:04:29.755Z,23.56
2022-11-21T22:06:27.997Z,23.44
2022-11-21T22:08:25.956Z,23.31
2022-11-21T22:10:24.004Z,23.19
2022-11-21T22:12:22.118Z,23.13
2022-11-21T22:14:20.092Z,23.00
2022-11-21T22:16:18.111Z,22.88
2022-11-21T22:18:16.151Z,22.81
2022-11-21T22:20:14.126Z,22.69
2022-11-21T22:22:12.118Z,22.63
2022-11-21T22:24:24.725Z,22.50
2022-11-21T22:26:24.569Z,22.44
2022-11-21T22:28:22.655Z,22.38
2022-11-21T22:30:20.658Z,22.25
2022-11-21T22:32:19.961Z,22.19
2022-11-21T22:34:18.177Z,22.13
2022-11-21T22:36:16.171Z,22.06
2022-11-21T22:38:14.884Z,22.00
2022-11-21T22:40:12.879Z,23.50
2022-11-21T22:42:10.885Z,23.25
2022-11-21T22:44:08.956Z,23.44
2022-11-21T22:46:07.060Z,23.63
2022-11-21T22:48:05.718Z,23.75
2022-11-21T22:50:04.507Z,23.94
2022-11-21T22:52:02.646Z,24.06
2022-11-21T22:54:00.897Z,24.19
2022-11-21T22:55:58.910Z,24.25
2022-11-21T22:57:56.967Z,24.38
2022-11-21T22:59:54.965Z,24.38
2022-11-21T23:01:53.282Z,23.38
2022-11-21T23:03:51.465Z,23.19
2022-11-21T23:05:49.587Z,23.06
2022-11-21T23:07:47.648Z,22.94
2022-11-21T23:09:45.728Z,22.81
2022-11-21T23:11:43.700Z,22.75
2022-11-21T23:13:41.739Z,22.63
2022-11-21T23:15:39.763Z,22.56
2022-11-21T23:17:37.853Z,22.44
2022-11-21T23:19:36.053Z,22.38
2022-11-21T23:21:34.151Z,22.31
2022-11-21T23:23:32.187Z,22.19
2022-11-21T23:25:30.237Z,22.13
2022-11-21T23:27:28.233Z,22.06
2022-11-21T23:29:26.244Z,22.00
2022-11-21T23:31:24.345Z,21.94
2022-11-21T23:33:22.599Z,21.88
2022-11-21T23:35:20.663Z,21.81
2022-11-21T23:37:18.654Z,21.75
2022-11-21T23:39:16.664Z,21.69
2022-11-21T23:41:14.711Z,21.63
2022-11-21T23:43:12.715Z,21.63
2022-11-21T23:45:10.873Z,21.56
2022-11-21T23:47:08.917Z,21.50
2022-11-21T23:49:07.092Z,21.44
2022-11-21T23:51:05.133Z,21.44
2022-11-21T23:53:03.212Z,21.38
2022-11-21T23:55:01.226Z,21.31
2022-11-21T23:56:59.330Z,21.31
2022-11-21T23:58:57.591Z,21.25
